createdAt,value
2023-04-20T00:01:01.465Z,95837.69
2023-04-20T00:03:28.585Z,95820.13
2023-04-20T00:05:55.333Z,95832.84
2023-04-20T00:08:21.829Z,95826.16
2023-04-20T00:10:48.312Z,95816.44
2023-04-20T00:13:14.970Z,95806.94
2023-04-20T00:15:41.506Z,95791.59
2023-04-20T00:18:08.182Z,95814.19
2023-04-20T00:20:35.167Z,95805.81
2023-04-20T00:23:01.915Z,95809.19
2023-04-20T00:25:29.641Z,95803.25
2023-04-20T00:27:56.860Z,95801.97
2023-04-20T00:30:23.474Z,95788.47
2023-04-20T00:32:50.019Z,95800.09
2023-04-20T00:35:16.616Z,95789.94
2023-04-20T00:37:44.278Z,95786.63
2023-04-20T00:40:11.085Z,95784.84
2023-04-20T00:42:37.704Z,95775.47
2023-04-20T00:45:04.589Z,95762.84
2023-04-20T00:47:31.108Z,95773.91
2023-04-20T00:49:57.756Z,95764.41
2023-04-20T00:52:24.640Z,95746.03
2023-04-20T00:54:51.193Z,95760.88
2023-04-20T00:57:23.787Z,95754.06
2023-04-20T00:59:53.648Z,95748.13
2023-04-20T01:02:22.719Z,95755.84
2023-04-20T01:05:39.923Z,95745.81
2023-04-20T01:08:06.950Z,95741.13
2023-04-20T01:10:33.559Z,95737.84
2023-04-20T01:13:00.057Z,95724.59
2023-04-20T01:15:26.816Z,95726.91
2023-04-20T01:17:53.685Z,95730.09
2023-04-20T01:20:20.556Z,95726.38
2023-04-20T01:22:48.908Z,95726.91
2023-04-20T01:25:16.333Z,95727.63
2023-04-20T01:27:43.207Z,95730.56
2023-04-20T01:30:10.665Z,95724.59
2023-04-20T01:32:38.023Z,95727.47
2023-04-20T01:35:05.734Z,95729.31
2023-04-20T01:37:32.485Z,95721.97
2023-04-20T01:40:03.725Z,95715.22
2023-04-20T01:42:30.426Z,95717.84
2023-04-20T01:44:56.923Z,95722.72
2023-04-20T01:47:23.527Z,95722.19
2023-04-20T01:49:50.017Z,95717.56
2023-04-20T01:52:17.922Z,95715.41
2023-04-20T01:54:44.452Z,95703.31
2023-04-20T01:57:10.919Z,95712.81
2023-04-20T01:59:37.406Z,95700.75
2023-04-20T02:02:03.959Z,95693.88
2023-04-20T02:04:32.792Z,95696.00
2023-04-20T02:07:00.194Z,95690.63
2023-04-20T02:09:26.823Z,95690.59
2023-04-20T02:11:53.876Z,95684.13
2023-04-20T02:14:20.358Z,95677.06
2023-04-20T02:16:47.224Z,95685.66
2023-04-20T02:19:13.720Z,95688.00
2023-04-20T02:21:40.278Z,95690.69
2023-04-20T02:24:07.118Z,95670.47
2023-04-20T02:26:33.801Z,95685.41
2023-04-20T02:29:00.292Z,95680.44
2023-04-20T02:31:26.920Z,95686.63
2023-04-20T02:33:53.734Z,95674.50
2023-04-20T02:36:20.415Z,95689.75
2023-04-20T02:38:46.943Z,95687.69
2023-04-20T02:41:13.410Z,95682.59
2023-04-20T02:43:40.496Z,95677.59
2023-04-20T02:46:08.145Z,95675.78
2023-04-20T02:48:34.738Z,95678.84
2023-04-20T02:51:01.274Z,95669.88
2023-04-20T02:53:32.884Z,95675.09
2023-04-20T02:56:11.671Z,95674.56
2023-04-20T02:58:52.052Z,95673.53
2023-04-20T03:01:44.504Z,95670.31
2023-04-20T03:04:18.027Z,95665.72
2023-04-20T03:06:54.742Z,95653.88
2023-04-20T03:09:27.871Z,95655.97
2023-04-20T03:12:03.327Z,95649.78
2023-04-20T03:14:48.658Z,95646.16
2023-04-20T03:17:17.435Z,95644.06
2023-04-20T03:19:44.267Z,95642.19
2023-04-20T03:22:10.901Z,95632.81
2023-04-20T03:24:37.808Z,95642.78
2023-04-20T03:27:14.561Z,95646.22
2023-04-20T03:29:52.729Z,95641.53
2023-04-20T03:32:19.792Z,95636.66
2023-04-20T03:34:46.578Z,95638.03
2023-04-20T03:37:13.499Z,95640.78
2023-04-20T03:39:40.185Z,95645.88
2023-04-20T03:42:06.847Z,95643.06
2023-04-20T03:44:33.399Z,95633.56
2023-04-20T03:47:00.020Z,95638.53
2023-04-20T03:49:26.608Z,95634.09
2023-04-20T03:51:53.070Z,95637.59
2023-04-20T03:54:19.582Z,95637.78
2023-04-20T03:56:46.229Z,95637.78
2023-04-20T03:59:13.645Z,95636.06
2023-04-20T04:01:44.089Z,95631.94
2023-04-20T04:04:11.029Z,95627.44
2023-04-20T04:06:38.199Z,95621.63
2023-04-20T04:09:05.890Z,95615.34
2023-04-20T04:11:32.501Z,95604.38
2023-04-20T04:13:59.342Z,95609.91
2023-04-20T04:16:27.238Z,95618.06
2023-04-20T04:18:54.387Z,95615.97
2023-04-20T04:21:21.086Z,95622.97
2023-04-20T04:23:54.419Z,95617.50
2023-04-20T04:26:33.632Z,95614.59
2023-04-20T04:29:00.254Z,95612.81
2023-04-20T04:31:27.550Z,95616.94
2023-04-20T04:34:01.059Z,95617.41
2023-04-20T04:36:33.509Z,95608.25
2023-04-20T04:39:00.901Z,95622.75
2023-04-20T04:41:28.609Z,95607.19
2023-04-20T04:44:05.968Z,95613.75
2023-04-20T04:46:33.702Z,95615.75
2023-04-20T04:49:04.352Z,95615.03
2023-04-20T04:51:31.693Z,95618.72
2023-04-20T04:53:58.179Z,95615.81
2023-04-20T04:56:25.286Z,95617.34
2023-04-20T04:58:51.794Z,95620.22
2023-04-20T05:01:18.327Z,95612.09
2023-04-20T05:03:45.002Z,95606.69
2023-04-20T05:06:11.634Z,95605.09
2023-04-20T05:08:38.208Z,95613.16
2023-04-20T05:11:04.760Z,95622.09
2023-04-20T05:13:31.272Z,95616.06
2023-04-20T05:15:57.789Z,95616.28
2023-04-20T05:18:24.287Z,95609.56
2023-04-20T05:20:50.761Z,95615.81
2023-04-20T05:23:17.304Z,95607.84
2023-04-20T05:25:43.920Z,95624.44
2023-04-20T05:28:10.728Z,95624.09
2023-04-20T05:30:37.232Z,95618.88
2023-04-20T05:33:03.982Z,95617.34
2023-04-20T05:35:31.131Z,95608.00
2023-04-20T05:38:00.324Z,95609.03
2023-04-20T05:40:26.966Z,95609.28
2023-04-20T05:42:53.553Z,95605.94
2023-04-20T05:45:20.039Z,95606.94
2023-04-20T05:47:57.073Z,95602.03
2023-04-20T05:50:24.923Z,95597.06
2023-04-20T05:52:52.054Z,95598.63
2023-04-20T05:55:22.079Z,95596.84
2023-04-20T05:57:49.277Z,95609.59
2023-04-20T06:00:17.125Z,95611.72
2023-04-20T06:02:43.928Z,95603.41
2023-04-20T06:05:11.244Z,95610.66
2023-04-20T06:07:38.510Z,95585.88
2023-04-20T06:10:06.318Z,95598.75
2023-04-20T06:12:32.931Z,95601.44
2023-04-20T06:15:00.536Z,95600.44
2023-04-20T06:17:27.253Z,95600.16
2023-04-20T06:19:53.896Z,95598.31
2023-04-20T06:22:20.613Z,95598.03
2023-04-20T06:24:47.120Z,95599.38
2023-04-20T06:27:13.841Z,95592.06
2023-04-20T06:29:40.462Z,95580.47
2023-04-20T06:32:06.963Z,95584.84
2023-04-20T06:34:33.474Z,95579.91
2023-04-20T06:36:59.976Z,95577.91
2023-04-20T06:39:26.735Z,95579.41
2023-04-20T06:41:53.212Z,95573.69
2023-04-20T06:44:21.456Z,95581.78
2023-04-20T06:46:48.096Z,95566.16
2023-04-20T06:49:14.686Z,95571.91
2023-04-20T06:51:41.277Z,95574.53
2023-04-20T06:54:07.892Z,95571.91
2023-04-20T06:56:35.647Z,95578.47
2023-04-20T06:59:02.706Z,95579.00
2023-04-20T07:01:29.203Z,95571.88
2023-04-20T07:03:55.847Z,95572.69
2023-04-20T07:06:22.658Z,95558.56
2023-04-20T07:08:49.172Z,95573.25
2023-04-20T07:11:15.798Z,95579.63
2023-04-20T07:13:42.299Z,95573.28
2023-04-20T07:16:10.237Z,95576.91
2023-04-20T07:18:36.849Z,95571.16
2023-04-20T07:21:03.514Z,95571.38
2023-04-20T07:23:30.063Z,95569.06
2023-04-20T07:25:56.577Z,95577.47
2023-04-20T07:28:23.116Z,95583.16
2023-04-20T07:30:49.826Z,95587.63
2023-04-20T07:33:16.440Z,95590.47
2023-04-20T07:35:42.955Z,95593.16
2023-04-20T07:38:09.466Z,95603.53
2023-04-20T07:40:36.104Z,95605.44
2023-04-20T07:43:02.593Z,95605.19
2023-04-20T07:45:29.178Z,95608.25
2023-04-20T07:47:57.356Z,95604.84
2023-04-20T07:50:24.049Z,95610.03
2023-04-20T07:52:50.763Z,95617.34
2023-04-20T07:55:17.424Z,95611.09
2023-04-20T07:57:45.424Z,95605.94
2023-04-20T08:00:13.474Z,95605.09
2023-04-20T08:02:40.039Z,95600.91
2023-04-20T08:05:08.082Z,95592.88
2023-04-20T08:07:34.652Z,95592.88
2023-04-20T08:10:02.831Z,95591.63
2023-04-20T08:12:29.357Z,95590.28
2023-04-20T08:15:00.469Z,95586.38
2023-04-20T08:17:27.713Z,95581.41
2023-04-20T08:19:54.346Z,95583.78
2023-04-20T08:22:20.873Z,95585.84
2023-04-20T08:24:47.574Z,95589.28
2023-04-20T08:27:14.067Z,95591.84
2023-04-20T08:29:41.053Z,95581.16
2023-04-20T08:32:12.398Z,95582.81
2023-04-20T08:34:39.468Z,95586.50
2023-04-20T08:37:06.111Z,95596.94
2023-04-20T08:39:32.848Z,95591.69
2023-04-20T08:41:59.442Z,95574.38
2023-04-20T08:44:26.304Z,95585.44
2023-04-20T08:46:52.852Z,95585.44
2023-04-20T08:49:20.000Z,95581.03
2023-04-20T08:51:47.728Z,95583.34
2023-04-20T08:54:14.702Z,95589.94
2023-04-20T08:56:47.013Z,95595.41
2023-04-20T08:59:14.629Z,95579.97
2023-04-20T09:01:42.447Z,95595.75
2023-04-20T09:04:18.853Z,95596.50
2023-04-20T09:06:47.330Z,95599.41
2023-04-20T09:09:13.979Z,95596.00
2023-04-20T09:11:40.731Z,95596.28
2023-04-20T09:14:15.014Z,95591.56
2023-04-20T09:16:52.793Z,95599.97
2023-04-20T09:19:24.711Z,95598.97
2023-04-20T09:21:52.869Z,95594.84
2023-04-20T09:24:21.518Z,95590.31
2023-04-20T09:26:48.405Z,95599.03
2023-04-20T09:29:19.887Z,95600.78
2023-04-20T09:31:47.096Z,95599.22
2023-04-20T09:34:13.791Z,95595.53
2023-04-20T09:36:47.321Z,95590.50
2023-04-20T09:39:16.770Z,95586.56
2023-04-20T09:41:43.709Z,95597.03
2023-04-20T09:44:11.869Z,95589.13
2023-04-20T09:46:40.666Z,95561.41
2023-04-20T09:49:09.084Z,95568.03
2023-04-20T09:51:38.383Z,95556.81
2023-04-20T09:54:06.638Z,95556.31
2023-04-20T09:56:35.087Z,95555.84
2023-04-20T09:59:03.701Z,95553.81
2023-04-20T10:01:33.584Z,95551.97
2023-04-20T10:04:01.370Z,95543.56
2023-04-20T10:06:33.277Z,95551.72
2023-04-20T10:09:02.305Z,95540.72
2023-04-20T10:11:41.119Z,95546.50
2023-04-20T10:14:17.087Z,95553.25
2023-04-20T10:16:45.439Z,95550.97
2023-04-20T10:19:13.102Z,95547.53
2023-04-20T10:21:48.696Z,95550.69
2023-04-20T10:24:18.862Z,95557.22
2023-04-20T10:26:47.259Z,95568.25
2023-04-20T10:29:32.323Z,95542.06
2023-04-20T10:31:59.662Z,95542.09
2023-04-20T10:34:33.671Z,95539.25
2023-04-20T10:37:11.285Z,95546.03
2023-04-20T10:39:46.473Z,95537.41
2023-04-20T10:42:16.022Z,95542.38
2023-04-20T10:44:54.503Z,95532.41
2023-04-20T10:47:32.457Z,95536.38
2023-04-20T10:50:10.504Z,95535.31
2023-04-20T10:52:40.205Z,95530.59
2023-04-20T10:55:18.052Z,95532.97
2023-04-20T10:57:47.860Z,95541.34
2023-04-20T11:00:21.714Z,95533.22
2023-04-20T11:02:50.234Z,95522.25
2023-04-20T11:05:19.089Z,95515.97
2023-04-20T11:07:53.591Z,95512.06
2023-04-20T11:10:22.073Z,95508.44
2023-04-20T11:12:49.217Z,95517.06
2023-04-20T11:15:16.388Z,95512.63
2023-04-20T11:17:43.213Z,95497.41
2023-04-20T11:20:16.271Z,95508.69
2023-04-20T11:22:43.745Z,95494.31
2023-04-20T11:25:11.898Z,95486.97
2023-04-20T11:27:39.551Z,95491.97
2023-04-20T11:30:08.722Z,95497.97
2023-04-20T11:32:36.103Z,95503.22
2023-04-20T11:35:10.796Z,95475.97
2023-04-20T11:37:54.450Z,95495.09
2023-04-20T11:40:21.239Z,95488.56
2023-04-20T11:42:47.816Z,95490.63
2023-04-20T11:45:14.289Z,95485.91
2023-04-20T11:47:41.585Z,95480.41
2023-04-20T11:50:10.282Z,95485.13
2023-04-20T11:52:37.021Z,95467.31
2023-04-20T11:55:03.705Z,95480.66
2023-04-20T11:57:30.303Z,95478.84
2023-04-20T11:59:56.924Z,95471.22
2023-04-20T12:02:23.628Z,95470.44
2023-04-20T12:04:50.531Z,95472.28
2023-04-20T12:07:17.156Z,95480.91
2023-04-20T12:09:44.444Z,95479.84
2023-04-20T12:12:11.002Z,95463.09
2023-04-20T12:14:37.476Z,95472.50
2023-04-20T12:17:05.046Z,95475.91
2023-04-20T12:19:31.981Z,95475.06
2023-04-20T12:21:58.657Z,95466.13
2023-04-20T12:24:25.311Z,95473.72
2023-04-20T12:26:51.827Z,95460.66
2023-04-20T12:29:18.638Z,95464.34
2023-04-20T12:31:45.345Z,95466.44
2023-04-20T12:34:12.433Z,95463.81
2023-04-20T12:36:38.934Z,95459.63
2023-04-20T12:39:05.578Z,95459.31
2023-04-20T12:41:33.078Z,95454.84
2023-04-20T12:43:59.716Z,95448.03
2023-04-20T12:46:26.258Z,95449.34
2023-04-20T12:48:52.754Z,95446.44
2023-04-20T12:51:19.274Z,95440.13
2023-04-20T12:53:45.986Z,95453.78
2023-04-20T12:56:12.452Z,95452.75
2023-04-20T12:58:38.946Z,95450.91
2023-04-20T13:01:05.725Z,95470.06
2023-04-20T13:03:32.757Z,95456.41
2023-04-20T13:06:00.565Z,95462.47
2023-04-20T13:08:27.162Z,95456.44
2023-04-20T13:10:53.702Z,95458.56
2023-04-20T13:13:20.228Z,95458.28
2023-04-20T13:15:46.782Z,95442.78
2023-04-20T13:18:15.499Z,95446.91
2023-04-20T13:20:42.073Z,95441.44
2023-04-20T13:23:08.526Z,95440.41
2023-04-20T13:25:35.123Z,95443.81
2023-04-20T13:28:03.473Z,95431.75
2023-04-20T13:30:30.050Z,95435.69
2023-04-20T13:32:56.673Z,95430.19
2023-04-20T13:35:24.127Z,95430.44
2023-04-20T13:37:50.824Z,95429.19
2023-04-20T13:40:17.439Z,95420.03
2023-04-20T13:42:43.893Z,95422.34
2023-04-20T13:45:10.782Z,95422.31
2023-04-20T13:47:39.636Z,95432.03
2023-04-20T13:50:07.675Z,95436.53
2023-04-20T13:52:34.677Z,95436.53
2023-04-20T13:55:01.165Z,95439.91
2023-04-20T13:57:27.725Z,95435.47
2023-04-20T13:59:54.282Z,95429.13
2023-04-20T14:02:20.891Z,95414.16
2023-04-20T14:04:47.578Z,95426.50
2023-04-20T14:07:14.203Z,95433.88
2023-04-20T14:09:40.694Z,95438.84
2023-04-20T14:12:07.346Z,95413.97
2023-04-20T14:14:33.842Z,95433.09
2023-04-20T14:17:00.441Z,95429.94
2023-04-20T14:19:26.928Z,95429.94
2023-04-20T14:21:53.486Z,95422.34
2023-04-20T14:24:20.224Z,95413.44
2023-04-20T14:26:46.908Z,95405.44
2023-04-20T14:29:13.700Z,95391.06
2023-04-20T14:31:40.421Z,95399.69
2023-04-20T14:34:07.130Z,95409.88
2023-04-20T14:36:33.602Z,95415.59
2023-04-20T14:39:00.095Z,95412.97
2023-04-20T14:41:26.603Z,95409.31
2023-04-20T14:43:53.087Z,95408.25
2023-04-20T14:46:19.855Z,95408.47
2023-04-20T14:48:46.522Z,95405.06
2023-04-20T14:51:13.936Z,95414.81
2023-04-20T14:53:40.439Z,95411.44
2023-04-20T14:56:07.102Z,95405.94
2023-04-20T14:58:33.791Z,95408.00
2023-04-20T15:01:00.826Z,95396.19
2023-04-20T15:03:27.532Z,95401.69
2023-04-20T15:05:59.562Z,95390.34
2023-04-20T15:08:26.098Z,95380.84
2023-04-20T15:10:56.414Z,95382.09
2023-04-20T15:13:23.871Z,95388.16
2023-04-20T15:15:51.974Z,95386.13
2023-04-20T15:18:20.033Z,95381.63
2023-04-20T15:20:46.610Z,95369.88
2023-04-20T15:23:13.141Z,95382.59
2023-04-20T15:25:39.784Z,95365.84
2023-04-20T15:28:06.801Z,95369.75
2023-04-20T15:30:33.549Z,95364.06
2023-04-20T15:33:04.449Z,95373.16
2023-04-20T15:35:31.502Z,95380.22
2023-04-20T15:37:58.085Z,95376.09
2023-04-20T15:40:24.754Z,95384.25
2023-04-20T15:42:51.520Z,95388.91
2023-04-20T15:45:18.003Z,95382.38
2023-04-20T15:47:44.643Z,95378.97
2023-04-20T15:50:11.294Z,95388.66
2023-04-20T15:52:37.834Z,95392.56
2023-04-20T15:55:04.879Z,95384.16
2023-04-20T15:57:31.412Z,95376.28
2023-04-20T15:59:57.935Z,95377.22
2023-04-20T16:02:24.744Z,95374.69
2023-04-20T16:04:51.435Z,95379.97
2023-04-20T16:07:18.023Z,95376.84
2023-04-20T16:09:44.452Z,95377.91
2023-04-20T16:12:10.991Z,95373.97
2023-04-20T16:14:37.422Z,95371.91
2023-04-20T16:17:03.890Z,95375.84
2023-04-20T16:19:31.515Z,95382.84
2023-04-20T16:21:58.180Z,95371.59
2023-04-20T16:24:24.671Z,95370.34
2023-04-20T16:26:51.262Z,95371.13
2023-04-20T16:29:17.720Z,95373.44
2023-04-20T16:31:44.303Z,95365.78
2023-04-20T16:34:10.739Z,95371.03
2023-04-20T16:36:37.204Z,95375.75
2023-04-20T16:39:06.062Z,95379.22
2023-04-20T16:41:32.497Z,95347.81
2023-04-20T16:43:58.951Z,95366.91
2023-04-20T16:46:25.834Z,95375.84
2023-04-20T16:48:54.454Z,95383.16
2023-04-20T16:51:20.937Z,95360.31
2023-04-20T16:53:47.373Z,95366.06
2023-04-20T16:56:14.453Z,95389.28
2023-04-20T16:58:40.877Z,95396.16
2023-04-20T17:01:07.830Z,95400.84
2023-04-20T17:03:34.531Z,95383.31
2023-04-20T17:06:07.257Z,95406.97
2023-04-20T17:08:34.473Z,95384.16
2023-04-20T17:11:01.810Z,95404.34
2023-04-20T17:13:28.344Z,95399.41
2023-04-20T17:15:54.848Z,95389.22
2023-04-20T17:18:21.624Z,95390.03
2023-04-20T17:20:48.592Z,95407.28
2023-04-20T17:23:19.466Z,95401.47
2023-04-20T17:25:47.331Z,95407.78
2023-04-20T17:28:14.144Z,95401.53
2023-04-20T17:30:41.615Z,95420.41
2023-04-20T17:33:13.928Z,95418.38
2023-04-20T17:35:40.701Z,95416.22
2023-04-20T17:38:07.436Z,95408.94
2023-04-20T17:40:34.283Z,95423.09
2023-04-20T17:43:01.712Z,95406.84
2023-04-20T17:45:28.154Z,95415.53
2023-04-20T17:47:54.620Z,95409.03
2023-04-20T17:50:22.535Z,95394.38
2023-04-20T17:52:49.070Z,95429.66
2023-04-20T17:55:15.565Z,95436.78
2023-04-20T17:57:42.133Z,95437.53
2023-04-20T18:00:11.525Z,95445.66
2023-04-20T18:02:40.955Z,95436.22
2023-04-20T18:05:07.856Z,95439.41
2023-04-20T18:07:34.680Z,95437.88
2023-04-20T18:10:01.424Z,95450.41
2023-04-20T18:12:27.932Z,95454.66
2023-04-20T18:14:54.374Z,95465.19
2023-04-20T18:17:20.914Z,95454.75
2023-04-20T18:19:47.497Z,95478.81
2023-04-20T18:22:14.400Z,95478.53
2023-04-20T18:24:40.884Z,95482.00
2023-04-20T18:27:07.365Z,95496.72
2023-04-20T18:29:33.786Z,95473.94
2023-04-20T18:32:01.180Z,95496.72
2023-04-20T18:34:30.986Z,95493.06
2023-04-20T18:36:58.470Z,95484.38
2023-04-20T18:39:25.695Z,95488.09
2023-04-20T18:41:52.211Z,95489.63
2023-04-20T18:44:18.969Z,95484.66
2023-04-20T18:46:46.347Z,95497.78
2023-04-20T18:49:12.858Z,95503.53
2023-04-20T18:51:39.320Z,95521.13
2023-04-20T18:54:06.298Z,95529.50
2023-04-20T18:56:32.779Z,95519.84
2023-04-20T18:59:00.297Z,95523.47
2023-04-20T19:01:27.203Z,95496.75
2023-04-20T19:03:54.035Z,95519.56
2023-04-20T19:06:20.581Z,95513.78
2023-04-20T19:08:47.206Z,95514.28
2023-04-20T19:11:13.673Z,95519.28
2023-04-20T19:13:44.323Z,95506.50
2023-04-20T19:16:11.943Z,95528.75
2023-04-20T19:18:39.224Z,95526.13
2023-04-20T19:21:05.937Z,95536.34
2023-04-20T19:23:32.496Z,95543.44
2023-04-20T19:25:59.011Z,95542.94
2023-04-20T19:28:25.585Z,95547.16
2023-04-20T19:30:52.125Z,95565.47
2023-04-20T19:33:18.892Z,95571.22
2023-04-20T19:35:50.511Z,95573.63
2023-04-20T19:38:21.342Z,95561.06
2023-04-20T19:40:48.884Z,95565.00
2023-04-20T19:43:16.978Z,95556.63
2023-04-20T19:45:43.714Z,95580.97
2023-04-20T19:48:10.333Z,95570.78
2023-04-20T19:50:36.879Z,95583.66
2023-04-20T19:53:03.570Z,95566.03
2023-04-20T19:55:30.207Z,95575.50
2023-04-20T19:57:56.678Z,95575.25
2023-04-20T20:00:23.128Z,95578.16
2023-04-20T20:02:49.714Z,95581.28
2023-04-20T20:05:16.281Z,95574.47
2023-04-20T20:07:42.914Z,95570.28
2023-04-20T20:10:09.674Z,95589.94
2023-04-20T20:12:36.256Z,95595.97
2023-04-20T20:15:04.020Z,95583.41
2023-04-20T20:17:30.574Z,95580.78
2023-04-20T20:19:57.048Z,95599.13
2023-04-20T20:22:23.586Z,95596.53
2023-04-20T20:24:54.120Z,95583.94
2023-04-20T20:27:21.296Z,95582.38
2023-04-20T20:29:47.778Z,95594.41
2023-04-20T20:32:14.332Z,95585.22
2023-04-20T20:34:41.292Z,95557.44
2023-04-20T20:37:10.162Z,95573.97
2023-04-20T20:39:36.908Z,95582.09
2023-04-20T20:42:04.105Z,95572.66
2023-04-20T20:44:33.065Z,95583.41
2023-04-20T20:47:02.712Z,95595.47
2023-04-20T20:49:29.179Z,95592.06
2023-04-20T20:51:55.728Z,95600.69
2023-04-20T20:54:22.247Z,95599.13
2023-04-20T20:56:48.736Z,95579.75
2023-04-20T20:59:15.439Z,95580.53
2023-04-20T21:01:41.908Z,95593.13
2023-04-20T21:04:08.735Z,95591.28
2023-04-20T21:06:35.518Z,95598.34
2023-04-20T21:09:02.098Z,95598.59
2023-04-20T21:11:28.619Z,95595.72
2023-04-20T21:14:01.306Z,95606.22
2023-04-20T21:16:28.534Z,95614.09
2023-04-20T21:18:55.239Z,95605.41
2023-04-20T21:21:21.643Z,95615.91
2023-04-20T21:23:49.092Z,95611.19
2023-04-20T21:26:16.271Z,95603.34
2023-04-20T21:28:42.895Z,95595.19
2023-04-20T21:31:09.372Z,95606.47
2023-04-20T21:33:36.105Z,95598.09
2023-04-20T21:36:02.602Z,95599.94
2023-04-20T21:38:29.048Z,95596.53
2023-04-20T21:40:55.542Z,95601.75
2023-04-20T21:43:21.984Z,95600.19
2023-04-20T21:45:48.437Z,95603.84
2023-04-20T21:48:14.927Z,95590.75
2023-04-20T21:50:41.405Z,95572.66
2023-04-20T21:53:07.838Z,95587.63
2023-04-20T21:55:34.804Z,95586.56
2023-04-20T21:58:01.562Z,95594.97
2023-04-20T22:00:27.954Z,95573.19
2023-04-20T22:02:54.448Z,95572.13
2023-04-20T22:05:21.767Z,95566.09
2023-04-20T22:07:48.196Z,95586.03
2023-04-20T22:10:15.066Z,95585.22
2023-04-20T22:12:42.232Z,95591.00
2023-04-20T22:15:13.958Z,95604.91
2023-04-20T22:17:41.014Z,95580.00
2023-04-20T22:20:10.055Z,95599.13
2023-04-20T22:22:37.310Z,95596.25
2023-04-20T22:25:05.113Z,95586.03
2023-04-20T22:27:33.349Z,95588.13
2023-04-20T22:29:59.952Z,95589.97
2023-04-20T22:32:27.031Z,95588.63
2023-04-20T22:34:53.499Z,95599.41
2023-04-20T22:37:19.929Z,95575.81
2023-04-20T22:39:46.338Z,95588.66
2023-04-20T22:42:12.743Z,95588.13
2023-04-20T22:44:39.188Z,95576.06
2023-04-20T22:47:05.732Z,95582.88
2023-04-20T22:49:32.222Z,95589.69
2023-04-20T22:51:58.648Z,95587.34
2023-04-20T22:54:25.458Z,95601.22
2023-04-20T22:56:52.034Z,95603.34
2023-04-20T22:59:18.732Z,95578.97
2023-04-20T23:01:45.681Z,95574.50
2023-04-20T23:04:12.317Z,95558.78
2023-04-20T23:06:38.818Z,95575.53
2023-04-20T23:09:08.411Z,95576.06
2023-04-20T23:11:38.658Z,95575.28
2023-04-20T23:14:09.008Z,95572.41
2023-04-20T23:16:35.605Z,95585.00
2023-04-20T23:19:02.099Z,95582.38
2023-04-20T23:21:28.893Z,95583.94
2023-04-20T23:23:58.761Z,95572.94
2023-04-20T23:26:25.326Z,95573.19
2023-04-20T23:28:52.769Z,95573.97
2023-04-20T23:31:19.827Z,95560.88
2023-04-20T23:33:47.330Z,95581.56
2023-04-20T23:36:13.824Z,95579.47
2023-04-20T23:38:40.650Z,95583.94
2023-04-20T23:41:15.156Z,95593.63
2023-04-20T23:43:42.422Z,95586.56
2023-04-20T23:46:09.051Z,95582.34
2023-04-20T23:48:35.557Z,95580.25
2023-04-20T23:51:02.294Z,95572.66
2023-04-20T23:53:28.761Z,95566.63
2023-04-20T23:55:55.754Z,95587.59
2023-04-20T23:58:26.960Z,95588.66
